KDTS

Details ICAO KDTS (DTS)
Name Destin Ft Walton Beach
Region United States
Timezone America/Chicago (UTC-6.0)
Plans Departing 13
Arriving 61
Stats Elevation 23 ft / 7 m (AMSL)
Location 30.400060° -86.471475°
Runways 1
Magnetic Variation 3.290° W
Sunrise 2017-12-12 12:34:49 UTC / 2017-12-12 06:34:49 Local
Sunset 2017-12-12 22:47:30 UTC / 2017-12-12 16:47:30 Local
Advertisement - Login to hide

Runways

ID Width Length Bearing (true) Bearing (mag) Surface Threshold Offset Overrun Length
14 98 ft / 30 m 5,007 ft / 1,526 m 142.27° 145.56° Asphalt 0 ft / 0 m 200 ft / 61 m
32 98 ft / 30 m 5,007 ft / 1,526 m 322.28° 325.57° Asphalt 0 ft / 0 m 200 ft / 61 m

Map

Weather


0- 5 10 15 20 25 30 35+ Temperature / ° C

Clouds and Precipitation
Forecast for 2017-12-12 12:00 UTC. Updated 2 hours ago

Ground ~20,000 ft ~40,000 ft Winds

METAR

KDTS 121053Z AUTO 27007G17KT 10SM CLR 16/07 A2998 RMK AO2 SLP153 T01610072

TAF

Not found

Frequencies

Recorded 133.92 MHz ASOS
Clearance 121.60 MHz EGLIN CLNC DEL
Approach 132.10 MHz EGLIN APP/DEP
Unicom 123.07 MHz UNICOM
Clearance 127.70 MHz EGLIN CLNC DEL
Warning: Do not use this data for real-world aviation or navigation. No guarantee of current accuracy is given.